Time;durP1;ratioP1;P1;durP2;ratioP2;P2;SDS_P1;SDS_P2;PMS_P1;PMS_P2;Temp;Humidity;BMP_temperature;BMP_pressure;BME280_temperature;BME280_humidity;BME280_pressure;Samples;Min_cycle;Max_cycle;Signal;HPM_P1;HPM_P2
2022/01/12 00:00:38;;;;;;;2.92;2.62;;;-1.80;1.40;;;-0.65;100.00;96924.89;648478;216;32007;-78
2022/01/12 00:03:14;;;;;;;6.00;3.70;;;-1.70;1.40;;;-0.72;100.00;96919.16;647565;212;31625;-79
2022/01/12 00:05:56;;;;;;;2.97;2.70;;;-1.80;1.40;;;-0.54;100.00;96925.12;640974;216;31733;-78
2022/01/12 00:08:43;;;;;;;5.05;3.17;;;-1.80;1.40;;;-0.60;100.00;96934.59;619673;226;32089;-75
2022/01/12 00:11:31;;;;;;;2.90;2.70;;;-1.80;1.40;;;-0.48;100.00;96933.22;647547;216;31609;-78
2022/01/12 00:14:13;;;;;;;4.07;3.50;;;-1.70;1.40;;;-0.66;100.00;96937.67;646935;216;32455;-78
2022/01/12 00:16:59;;;;;;;5.93;3.65;;;-1.70;1.40;;;-0.86;100.00;96940.98;619577;226;31948;-78
2022/01/12 00:19:46;;;;;;;4.10;2.35;;;-1.70;1.40;;;-0.66;100.00;96941.16;646929;216;31886;-77
2022/01/12 00:22:34;;;;;;;2.97;2.30;;;-1.70;1.40;;;-0.50;100.00;96944.84;647497;216;31570;-78
2022/01/12 00:25:27;;;;;;;2.65;2.17;;;-1.70;1.40;;;-0.79;100.00;96944.27;618834;222;32121;-78
2022/01/12 00:35:55;;;;;;;4.03;3.62;;;-1.80;1.40;;;-0.51;100.00;96937.05;647371;212;31606;-79
2022/01/12 00:38:37;;;;;;;3.65;2.22;;;-1.80;1.40;;;-0.76;100.00;96931.80;646546;216;32410;-77
2022/01/12 00:41:19;;;;;;;5.75;4.05;;;-1.80;1.40;;;-0.92;100.00;96931.80;647889;216;31528;-78
2022/01/12 00:46:35;;;;;;;3.33;3.00;;;-2.00;1.40;;;-1.15;100.00;96932.55;647863;216;31542;-78
2022/01/12 00:49:26;;;;;;;3.30;2.72;;;-2.10;1.40;;;-1.00;100.00;96935.37;646173;216;31593;-75
2022/01/12 00:52:08;;;;;;;2.40;2.20;;;-2.20;1.40;;;-1.35;100.00;96929.25;646144;216;31600;-76
2022/01/12 00:54:52;;;;;;;2.80;2.00;;;-2.30;1.40;;;-1.34;100.00;96931.49;646082;216;31575;-79
2022/01/12 00:57:40;;;;;;;2.95;1.75;;;-2.40;1.40;;;-1.27;100.00;96933.16;645960;216;31615;-76
2022/01/12 01:00:28;;;;;;;2.35;1.75;;;-2.40;1.40;;;-1.45;100.00;96929.28;647588;216;31569;-78
2022/01/12 01:03:10;;;;;;;2.45;2.17;;;-2.50;1.40;;;-1.53;100.00;96935.33;647634;216;31571;-78
2022/01/12 01:05:51;;;;;;;3.45;3.17;;;-2.70;1.40;;;-1.61;100.00;96938.75;615722;222;32222;-78
2022/01/12 01:08:33;;;;;;;3.70;3.40;;;-2.70;1.40;;;-1.82;100.00;96937.98;646617;212;31573;-79
2022/01/12 01:11:21;;;;;;;5.03;4.55;;;-2.80;1.40;;;-1.82;100.00;96941.38;647798;216;31565;-74
2022/01/12 01:14:12;;;;;;;2.75;2.30;;;-2.70;1.40;;;-1.76;100.00;96941.16;646342;216;31556;-75
2022/01/12 01:17:07;;;;;;;6.55;4.18;;;-2.70;1.40;;;-1.85;100.00;96941.70;619720;226;31944;-78
2022/01/12 01:28:06;;;;;;;5.30;3.58;;;-2.80;1.40;;;-2.29;100.00;96928.13;647636;216;31714;-78
2022/01/12 01:30:48;;;;;;;3.22;3.00;;;-2.80;1.40;;;-2.42;100.00;96920.47;647744;212;31591;-78
2022/01/12 01:35:56;;;;;;;4.10;2.20;;;-2.90;1.40;;;-2.52;100.00;96913.84;646554;216;31572;-75
2022/01/12 01:38:41;;;;;;;1.95;1.85;;;-2.90;1.40;;;-2.65;100.00;96911.83;619807;222;31948;-78
2022/01/12 01:41:23;;;;;;;2.65;2.45;;;-3.00;1.40;;;-2.65;100.00;96914.37;646845;216;31553;-78
2022/01/12 01:55:41;;;;;;;2.30;1.60;;;-3.80;1.40;;;-3.02;100.00;96918.52;645814;216;32143;-76
2022/01/12 01:58:22;;;;;;;1.90;1.80;;;-3.80;1.40;;;-2.94;100.00;96915.40;647145;216;31590;-76
2022/01/12 02:01:04;;;;;;;4.72;1.73;;;-3.70;1.40;;;-2.83;100.00;96910.91;646489;216;31619;-73
2022/01/12 02:03:46;;;;;;;2.80;2.12;;;-3.60;1.40;;;-2.80;100.00;96910.40;647815;216;31612;-76
2022/01/12 02:06:28;;;;;;;1.77;1.52;;;-3.60;1.40;;;-2.92;100.00;96908.89;613928;222;32073;-74
2022/01/12 02:09:09;;;;;;;1.20;1.10;;;-3.80;1.40;;;-3.17;100.00;96902.36;646009;216;31542;-74
2022/01/12 02:11:51;;;;;;;4.25;2.05;;;-4.00;1.40;;;-3.31;100.00;96906.18;647949;216;31531;-74
2022/01/12 02:14:33;;;;;;;4.97;2.62;;;-4.10;1.40;;;-3.22;100.00;96912.25;646442;216;32321;-77
2022/01/12 02:17:20;;;;;;;1.50;1.40;;;-4.00;1.40;;;-3.08;100.00;96916.73;646019;212;32784;-74
2022/01/12 02:20:14;;;;;;;2.50;2.05;;;-3.90;1.40;;;-3.03;100.00;96921.91;647202;216;31641;-74
2022/01/12 02:36:06;;;;;;;5.22;1.50;;;-3.90;1.40;;;-3.34;100.00;96935.66;647319;216;31614;-78
2022/01/12 02:41:28;;;;;;;5.30;3.05;;;-3.60;1.40;;;-3.13;100.00;96938.30;615641;227;31935;-75
2022/01/12 02:55:35;;;;;;;1.00;0.80;;;-3.20;1.40;;;-2.48;100.00;96945.20;645261;216;31551;-77
2022/01/12 02:58:17;;;;;;;2.30;2.15;;;-3.20;1.40;;;-2.55;100.00;96944.77;647602;212;42153;-74
2022/01/12 03:03:56;;;;;;;2.90;2.60;;;-3.10;1.40;;;-2.64;100.00;96945.13;647012;216;32640;-74
2022/01/12 03:06:38;;;;;;;2.20;1.35;;;-3.10;1.40;;;-2.44;100.00;96944.53;640803;216;31825;-76
2022/01/12 03:09:17;;;;;;;4.40;2.20;;;-3.00;1.40;;;-2.44;100.00;96949.67;647129;216;31681;-73
2022/01/12 03:11:59;;;;;;;5.40;3.20;;;-3.00;1.40;;;-2.37;100.00;96954.39;645438;216;31667;-77
2022/01/12 03:14:41;;;;;;;2.87;1.85;;;-3.00;1.40;;;-2.26;100.00;96956.28;619012;222;32162;-77
2022/01/12 03:17:22;;;;;;;4.15;1.90;;;-3.00;1.40;;;-2.32;100.00;96953.77;618403;222;32463;-74
2022/01/12 03:20:05;;;;;;;7.60;3.00;;;-3.00;1.40;;;-2.38;100.00;96953.64;646987;216;31558;-77
2022/01/12 03:22:53;;;;;;;2.05;1.60;;;-3.00;1.40;;;-2.33;100.00;96952.73;647402;212;31572;-75
2022/01/12 03:25:35;;;;;;;3.87;1.67;;;-3.00;1.40;;;-2.25;100.00;96958.81;647898;212;31612;-73
2022/01/12 03:28:18;;;;;;;2.10;2.00;;;-2.90;1.40;;;-2.14;100.00;96967.61;648424;212;42999;-78
2022/01/12 03:31:19;;;;;;;4.57;2.80;;;-2.90;1.40;;;-2.22;100.00;96967.16;642217;219;31741;-76
2022/01/12 03:36:12;;;;;;;1.52;1.42;;;-2.90;1.40;;;-2.34;100.00;96971.09;647807;216;31896;-78
2022/01/12 03:38:33;;;;;;;4.65;3.00;;;-2.90;1.40;;;-2.31;100.00;96968.13;647404;212;31584;-78
2022/01/12 03:41:26;;;;;;;4.05;3.65;;;-2.80;1.40;;;-1.94;100.00;96969.33;646412;212;31552;-76
2022/01/12 03:44:07;;;;;;;1.70;1.40;;;-2.70;1.40;;;-1.78;100.00;96973.39;646875;216;31602;-74
2022/01/12 03:46:55;;;;;;;3.20;2.60;;;-2.70;1.40;;;-1.56;100.00;96978.19;646620;212;31582;-79
2022/01/12 03:49:36;;;;;;;2.40;2.20;;;-2.60;1.40;;;-1.84;100.00;96979.62;648602;214;31555;-78
2022/01/12 03:52:24;;;;;;;6.30;3.80;;;-2.60;1.40;;;-1.95;100.00;96978.09;648044;216;31959;-74
2022/01/12 03:55:09;;;;;;;4.72;2.97;;;-2.70;1.40;;;-1.88;100.00;96977.30;646815;216;31570;-76
2022/01/12 03:57:55;;;;;;;4.62;3.67;;;-2.70;1.40;;;-1.77;100.00;96981.72;635831;216;31740;-78
2022/01/12 04:00:36;;;;;;;4.35;1.52;;;-2.70;1.40;;;-2.01;100.00;96984.63;648203;216;31543;-79
2022/01/12 04:03:25;;;;;;;6.32;4.15;;;-2.70;1.40;;;-1.75;100.00;96983.24;647145;216;31556;-75
2022/01/12 04:08:58;;;;;;;2.20;2.00;;;-2.80;1.40;;;-2.18;100.00;96976.59;648252;212;31584;-78
2022/01/12 04:11:40;;;;;;;5.65;3.40;;;-2.80;1.40;;;-1.96;100.00;96976.88;647168;216;31518;-78
2022/01/12 04:14:27;;;;;;;4.62;2.83;;;-2.70;1.40;;;-1.74;100.00;96975.65;646564;216;31659;-75
2022/01/12 04:17:09;;;;;;;3.67;2.80;;;-2.60;1.40;;;-1.52;100.00;96978.19;645727;216;31580;-75
2022/01/12 04:19:59;;;;;;;2.47;1.95;;;-2.60;1.40;;;-1.51;100.00;96983.08;647375;216;32049;-78
2022/01/12 04:25:31;;;;;;;3.65;3.20;;;-2.50;1.40;;;-1.43;100.00;96983.55;621206;225;31904;-78
2022/01/12 04:28:12;;;;;;;5.75;2.65;;;-2.50;1.40;;;-1.30;100.00;96986.77;647430;216;31593;-78
2022/01/12 04:30:55;;;;;;;2.20;2.00;;;-2.50;1.40;;;-1.31;100.00;96992.21;619470;222;32079;-75
2022/01/12 04:35:54;;;;;;;8.05;5.47;;;-2.40;1.40;;;-1.60;100.00;96998.48;646588;216;32015;-74
2022/01/12 04:38:36;;;;;;;4.65;4.00;;;-2.60;1.40;;;-1.61;100.00;96994.07;646894;216;31638;-78
2022/01/12 04:41:24;;;;;;;1.67;1.58;;;-2.60;1.40;;;-1.61;100.00;96992.66;647308;216;31568;-75
2022/01/12 04:44:11;;;;;;;4.53;2.45;;;-2.60;1.40;;;-2.15;100.00;96991.30;646887;212;42417;-79
2022/01/12 04:47:03;;;;;;;3.97;3.67;;;-2.70;1.40;;;-2.30;100.00;96985.05;620241;222;31953;-78
2022/01/12 04:52:38;;;;;;;2.92;2.72;;;-2.80;1.40;;;-2.07;100.00;96982.52;619370;226;31934;-74
2022/01/12 04:55:21;;;;;;;3.80;3.15;;;-2.80;1.40;;;-1.91;100.00;96987.59;620351;222;31915;-74
2022/01/12 04:58:03;;;;;;;4.55;3.47;;;-2.70;1.40;;;-1.73;100.00;96994.41;645849;212;31541;-74
2022/01/12 05:00:45;;;;;;;5.20;3.25;;;-2.70;1.40;;;-1.62;100.00;96999.55;619505;226;31906;-77
2022/01/12 05:06:42;;;;;;;3.78;2.60;;;-2.70;1.40;;;-1.57;100.00;97004.38;626519;221;31921;-78
2022/01/12 05:09:40;;;;;;;3.58;3.00;;;-2.70;1.40;;;-1.59;100.00;97006.17;631481;221;32089;-76
2022/01/12 05:15:06;;;;;;;3.97;3.17;;;-2.80;1.40;;;-1.97;100.00;97000.20;647180;212;31572;-74
2022/01/12 05:17:40;;;;;;;3.80;3.50;;;-2.80;1.40;;;-1.90;100.00;97010.27;645862;212;31600;-77
2022/01/12 05:20:28;;;;;;;5.30;3.00;;;-2.80;1.40;;;-1.73;100.00;97011.64;647909;212;31575;-78
2022/01/12 05:23:10;;;;;;;4.20;3.65;;;-2.60;1.40;;;-2.00;100.00;97017.42;619990;222;32027;-78
2022/01/12 05:25:58;;;;;;;4.72;3.15;;;-2.70;1.40;;;-2.42;100.00;97013.31;646148;216;31613;-75
2022/01/12 05:28:46;;;;;;;3.58;2.20;;;-2.90;1.40;;;-2.52;100.00;97017.17;647598;212;32156;-78
2022/01/12 05:31:27;;;;;;;4.55;2.40;;;-2.90;1.40;;;-2.53;100.00;97023.25;647046;212;31603;-78
2022/01/12 05:35:53;;;;;;;5.10;3.08;;;-2.90;1.40;;;-2.55;100.00;97029.16;648165;216;31597;-77
2022/01/12 05:38:40;;;;;;;3.65;3.25;;;-3.00;1.40;;;-2.45;100.00;97027.71;647858;212;31947;-78
2022/01/12 05:41:24;;;;;;;6.53;3.75;;;-2.90;1.40;;;-1.99;100.00;97046.83;647324;212;31628;-77
2022/01/12 05:44:10;;;;;;;3.22;2.72;;;-2.80;1.40;;;-2.11;100.00;97053.11;646167;212;31659;-75
2022/01/12 05:46:54;;;;;;;3.80;2.95;;;-2.80;1.40;;;-2.38;100.00;97050.00;632078;217;31651;-76
2022/01/12 05:49:36;;;;;;;3.85;3.55;;;-3.00;1.40;;;-2.45;100.00;97044.34;646751;216;31551;-77
2022/01/12 05:52:19;;;;;;;3.22;2.90;;;-3.00;1.40;;;-2.50;100.00;97048.65;647275;216;31607;-75
2022/01/12 05:55:07;;;;;;;6.90;3.97;;;-2.90;1.40;;;-2.41;100.00;97043.37;648084;212;32090;-79
2022/01/12 05:57:50;;;;;;;2.70;2.20;;;-2.90;1.40;;;-2.29;100.00;97048.76;647266;212;31603;-74
2022/01/12 06:00:35;;;;;;;5.28;2.30;;;-2.90;1.40;;;-2.32;100.00;97053.86;646812;212;32193;-75
2022/01/12 06:03:17;;;;;;;3.40;2.70;;;-2.90;1.40;;;-2.48;100.00;97052.30;647146;216;31550;-74
2022/01/12 06:06:02;;;;;;;4.47;3.20;;;-3.00;1.40;;;-2.78;100.00;97051.24;643291;212;32122;-74
2022/01/12 06:08:44;;;;;;;4.30;3.60;;;-3.20;1.40;;;-2.78;100.00;97043.80;647293;216;31540;-76
2022/01/12 06:11:25;;;;;;;2.60;2.40;;;-3.20;1.40;;;-2.84;100.00;97041.08;647337;216;31547;-74
2022/01/12 06:14:08;;;;;;;8.07;3.70;;;-3.20;1.40;;;-2.76;100.00;97038.77;645490;212;31562;-76
2022/01/12 06:16:50;;;;;;;2.45;2.08;;;-3.10;1.40;;;-2.57;100.00;97045.82;619800;226;31925;-74
2022/01/12 06:19:30;;;;;;;4.62;3.70;;;-3.20;1.40;;;-2.49;100.00;97051.39;619791;222;32010;-77
2022/01/12 06:22:14;;;;;;;4.35;2.60;;;-3.20;1.40;;;-2.47;100.00;97057.09;619520;222;32048;-79
2022/01/12 06:25:04;;;;;;;3.90;2.25;;;-3.20;1.40;;;-2.43;100.00;97061.15;619168;222;32084;-74
2022/01/12 06:27:52;;;;;;;2.67;2.20;;;-3.10;1.40;;;-2.38;100.00;97067.14;619073;226;31887;-74
2022/01/12 06:35:57;;;;;;;2.35;2.15;;;-2.90;1.40;;;-2.15;100.00;97077.99;646753;216;31558;-76
2022/01/12 06:38:39;;;;;;;5.37;2.30;;;-2.90;1.40;;;-2.06;100.00;97078.41;646516;212;31550;-77
2022/01/12 06:41:21;;;;;;;3.47;2.15;;;-2.80;1.40;;;-2.04;100.00;97083.94;618609;226;31882;-75
2022/01/12 06:44:06;;;;;;;3.47;3.17;;;-2.80;1.40;;;-2.06;100.00;97099.86;619960;226;32153;-74
2022/01/12 06:46:48;;;;;;;6.07;3.35;;;-2.80;1.40;;;-2.19;100.00;97099.10;645735;212;31589;-74
2022/01/12 06:49:30;;;;;;;6.50;3.60;;;-2.90;1.40;;;-1.93;100.00;97105.52;647340;216;31633;-77
2022/01/12 06:52:12;;;;;;;5.30;2.92;;;-2.80;1.40;;;-2.05;100.00;97117.83;646273;216;31706;-77
2022/01/12 06:54:54;;;;;;;4.87;4.37;;;-2.80;1.40;;;-2.11;100.00;97123.65;646557;216;31578;-76
2022/01/12 06:57:38;;;;;;;3.50;2.80;;;-2.80;1.40;;;-2.11;100.00;97128.81;647799;216;31665;-79
2022/01/12 07:00:21;;;;;;;3.67;3.03;;;-2.70;1.40;;;-2.17;100.00;97130.97;618192;226;31875;-79
2022/01/12 07:03:09;;;;;;;3.53;2.35;;;-2.80;1.40;;;-2.07;100.00;97130.11;646994;212;31901;-78
2022/01/12 07:05:53;;;;;;;3.45;3.15;;;-2.80;1.40;;;-2.15;100.00;97125.98;644097;216;31728;-77
2022/01/12 07:08:36;;;;;;;3.00;2.87;;;-2.80;1.40;;;-1.99;100.00;97121.78;645614;216;32472;-74
2022/01/12 07:11:23;;;;;;;4.78;3.05;;;-2.70;1.40;;;-2.04;100.00;97125.30;647189;212;31593;-78
2022/01/12 07:14:05;;;;;;;4.37;3.33;;;-2.70;1.40;;;-1.79;100.00;97125.16;647409;212;32290;-78
2022/01/12 07:16:55;;;;;;;4.47;2.65;;;-2.70;1.40;;;-1.89;100.00;97130.66;618959;226;31999;-77
2022/01/12 07:19:39;;;;;;;3.47;3.17;;;-2.60;1.40;;;-1.77;100.00;97144.19;646633;212;31573;-75
2022/01/12 07:22:21;;;;;;;2.30;2.03;;;-2.70;1.40;;;-1.93;100.00;97149.59;645285;216;31618;-76
2022/01/12 07:25:09;;;;;;;4.05;3.85;;;-2.60;1.40;;;-2.09;100.00;97144.49;646026;212;31849;-77
2022/01/12 07:27:51;;;;;;;6.03;3.55;;;-2.70;1.40;;;-1.80;100.00;97145.17;647637;212;31675;-77
2022/01/12 07:30:35;;;;;;;6.00;4.05;;;-2.60;1.40;;;-1.77;100.00;97155.03;647225;212;31526;-77
2022/01/12 07:35:51;;;;;;;3.35;2.40;;;-2.50;1.40;;;-1.88;100.00;97157.47;647479;212;31936;-77
2022/01/12 07:38:39;;;;;;;4.43;3.90;;;-2.60;1.40;;;-1.96;100.00;97164.13;645921;216;31726;-77
2022/01/12 07:41:27;;;;;;;4.05;3.33;;;-2.60;1.40;;;-1.89;100.00;97175.31;646524;216;31587;-77
2022/01/12 07:44:14;;;;;;;4.37;3.33;;;-2.50;1.40;;;-1.82;100.00;97181.22;645828;216;31718;-76
2022/01/12 07:47:02;;;;;;;3.62;2.25;;;-2.50;1.40;;;-1.73;100.00;97178.97;646661;212;31570;-77
2022/01/12 07:49:44;;;;;;;3.50;3.00;;;-2.50;1.40;;;-1.48;100.00;97197.23;646838;212;31582;-77
2022/01/12 07:52:26;;;;;;;2.55;1.80;;;-2.40;1.40;;;-1.65;100.00;97189.36;646564;212;31620;-77
2022/01/12 07:55:08;;;;;;;4.85;4.15;;;-2.50;1.40;;;-1.20;100.00;97190.78;619947;226;31912;-77
2022/01/12 07:57:51;;;;;;;5.55;4.50;;;-2.30;1.40;;;-1.38;100.00;97186.42;646898;216;31687;-77
2022/01/12 08:00:33;;;;;;;9.70;3.60;;;-2.40;1.40;;;-1.25;100.00;97182.82;646985;212;31594;-77
2022/01/12 08:03:15;;;;;;;4.50;4.10;;;-2.30;1.40;;;-1.13;100.00;97189.99;618992;226;32581;-78
2022/01/12 08:05:58;;;;;;;3.85;3.55;;;-2.20;1.40;;;-0.82;100.00;97189.23;626547;222;31935;-78
2022/01/12 08:08:39;;;;;;;4.20;4.00;;;-2.10;1.40;;;-0.71;100.00;97196.58;646964;212;31577;-78
2022/01/12 08:11:21;;;;;;;8.60;5.50;;;-2.10;1.40;;;-1.08;100.00;97202.14;620387;222;32101;-77
2022/01/12 08:14:06;;;;;;;4.82;3.10;;;-2.20;1.40;;;-1.07;100.00;97197.45;646011;213;31524;-78
2022/01/12 08:16:53;;;;;;;6.20;4.50;;;-2.20;1.40;;;-1.26;100.00;97209.27;646893;216;42206;-77
2022/01/12 08:19:41;;;;;;;5.68;3.85;;;-2.30;1.40;;;-1.27;100.00;97217.05;619319;222;31898;-77
2022/01/12 08:22:29;;;;;;;4.43;3.17;;;-2.20;1.40;;;-1.22;100.00;97224.31;646612;216;31615;-75
2022/01/12 08:25:17;;;;;;;6.30;4.30;;;-2.20;1.40;;;-1.22;100.00;97227.34;620044;226;31896;-78
2022/01/12 08:28:01;;;;;;;4.25;3.28;;;-2.20;1.40;;;-1.43;100.00;97225.34;648789;212;31689;-77
2022/01/12 08:30:43;;;;;;;3.47;3.15;;;-2.20;1.40;;;-1.54;100.00;97227.99;646178;212;31615;-77
2022/01/12 08:35:54;;;;;;;5.85;2.92;;;-2.10;1.40;;;-1.04;100.00;97221.78;631799;222;32234;-78
2022/01/12 08:38:36;;;;;;;4.18;3.05;;;-2.10;1.40;;;-1.24;100.00;97220.02;619633;222;31930;-79
2022/01/12 08:41:17;;;;;;;6.03;4.25;;;-2.20;1.40;;;-0.76;100.00;97210.70;620379;226;31941;-78
2022/01/12 08:44:08;;;;;;;5.72;2.62;;;-2.00;1.40;;;-0.95;100.00;97208.27;646596;216;42183;-77
2022/01/12 08:46:56;;;;;;;3.40;3.10;;;-2.10;1.40;;;-1.28;100.00;97206.98;646417;213;31566;-78
2022/01/12 08:49:41;;;;;;;5.93;4.32;;;-2.10;1.40;;;-1.43;100.00;97210.28;646560;216;31540;-77
2022/01/12 08:52:25;;;;;;;4.12;3.53;;;-2.10;1.40;;;-1.27;100.00;97218.72;647459;212;31524;-77
2022/01/12 08:57:45;;;;;;;3.95;2.25;;;-2.20;1.40;;;-1.69;100.00;97216.50;646202;216;31931;-77
2022/01/12 09:03:05;;;;;;;3.40;2.40;;;-2.00;1.40;;;-1.18;100.00;97225.38;619727;222;31992;-78
2022/01/12 09:05:46;;;;;;;4.30;2.80;;;-1.90;1.40;;;-1.13;100.00;97232.20;647204;212;31881;-77
2022/01/12 09:08:28;;;;;;;3.50;2.50;;;-1.80;1.40;;;-1.50;100.00;97231.45;647045;212;31529;-78
2022/01/12 09:11:14;;;;;;;2.25;1.70;;;-2.00;1.40;;;-0.75;100.00;97234.86;619791;226;31893;-78
2022/01/12 09:13:55;;;;;;;3.00;1.80;;;-1.70;1.40;;;-0.83;100.00;97237.78;649037;212;31809;-77
2022/01/12 09:16:37;;;;;;;3.47;3.17;;;-1.80;1.40;;;-1.22;100.00;97235.08;647676;212;31917;-77
2022/01/12 09:19:19;;;;;;;4.00;2.35;;;-2.00;1.40;;;-1.66;100.00;97241.03;620341;225;32084;-77
2022/01/12 09:22:00;;;;;;;3.50;3.12;;;-2.10;1.40;;;-1.47;100.00;97238.12;619364;226;32020;-78
2022/01/12 09:24:46;;;;;;;3.30;3.00;;;-2.10;1.40;;;-1.25;100.00;97245.68;647485;212;42793;-78
2022/01/12 09:27:27;;;;;;;2.73;2.43;;;-1.90;1.40;;;-0.90;100.00;97239.52;648167;216;31760;-79
2022/01/12 09:30:10;;;;;;;3.37;2.90;;;-1.80;1.40;;;-0.51;100.00;97236.00;649047;212;42202;-77
2022/01/12 09:35:53;;;;;;;7.60;4.93;;;-1.50;1.40;;;-0.49;100.00;97225.09;612882;225;32251;-77
2022/01/12 09:38:33;;;;;;;4.40;3.67;;;-1.40;1.40;;;0.01;100.00;97223.81;619451;223;42723;-77
2022/01/12 09:41:18;;;;;;;3.45;3.15;;;-1.20;1.40;;;-0.75;100.00;97225.59;619747;222;32620;-78
2022/01/12 09:44:00;;;;;;;5.35;3.87;;;-1.50;1.40;;;-0.56;100.00;97221.55;646496;216;31598;-78
2022/01/12 09:46:42;;;;;;;3.92;3.62;;;-1.40;1.40;;;-0.61;100.00;97234.59;647000;212;31547;-77
2022/01/12 09:49:24;;;;;;;4.53;3.20;;;-1.40;1.40;;;-1.04;100.00;97239.51;620009;222;42572;-78
2022/01/12 09:52:05;;;;;;;3.47;3.17;;;-1.60;1.40;;;-1.33;100.00;97237.48;647418;216;31554;-78
2022/01/12 09:54:47;;;;;;;3.25;2.20;;;-1.80;1.40;;;-1.10;100.00;97236.09;647138;216;42279;-77
2022/01/12 09:57:30;;;;;;;4.32;3.60;;;-1.60;1.40;;;-0.89;100.00;97239.71;647649;216;31696;-77
2022/01/12 10:00:12;;;;;;;3.15;2.42;;;-1.50;1.40;;;-0.88;100.00;97236.39;646621;216;42263;-78
2022/01/12 10:02:58;;;;;;;3.58;3.08;;;-1.40;1.40;;;-0.92;100.00;97229.56;621167;222;42689;-78
2022/01/12 10:05:41;;;;;;;3.90;3.60;;;-1.50;1.40;;;-0.17;100.00;97227.03;645650;212;31626;-75
2022/01/12 10:08:29;;;;;;;4.20;2.95;;;-1.10;1.40;;;-0.19;100.00;97226.52;647180;216;42231;-77
2022/01/12 10:11:11;;;;;;;5.25;4.75;;;-1.00;1.40;;;0.69;100.00;97228.52;619997;222;42697;-78
2022/01/12 10:13:57;;;;;;;4.93;4.43;;;-0.60;1.40;;;0.84;100.00;97226.95;619578;226;42722;-77
2022/01/12 10:16:39;;;;;;;3.45;3.15;;;-0.60;1.40;;;0.19;100.00;97232.32;631224;222;42553;-77
2022/01/12 10:19:28;;;;;;;3.83;3.17;;;-0.80;1.40;;;1.20;100.00;97226.66;647270;212;31549;-78
2022/01/12 10:22:11;;;;;;;3.60;3.30;;;-0.40;1.40;;;1.34;100.00;97225.28;620024;222;43053;-77
2022/01/12 10:24:53;;;;;;;4.03;3.05;;;-0.30;1.40;;;1.66;100.00;97213.09;648916;216;31600;-77
2022/01/12 10:27:35;;;;;;;3.10;2.83;;;-0.20;1.40;;;1.32;100.00;97209.06;647926;212;31614;-78
2022/01/12 10:30:20;;;;;;;3.17;2.87;;;-0.30;1.40;;;1.46;100.00;97206.84;647644;216;31539;-77
2022/01/12 10:35:50;;;;;;;4.43;3.92;;;-0.20;1.40;;;2.03;100.00;97207.05;618640;222;31941;-77
2022/01/12 10:38:33;;;;;;;4.40;3.78;;;0.10;1.40;;;1.55;100.00;97216.08;642944;216;31658;-78
2022/01/12 10:41:16;;;;;;;2.80;2.60;;;-0.20;1.40;;;0.57;100.00;97213.91;647737;212;31570;-77
2022/01/12 10:43:58;;;;;;;4.50;4.10;;;-0.70;1.40;;;0.57;100.00;97209.20;631182;222;31735;-78
2022/01/12 10:46:41;;;;;;;4.78;4.28;;;-0.70;1.40;;;0.35;100.00;97199.08;618617;225;31992;-77
2022/01/12 10:49:22;;;;;;;4.78;2.83;;;-0.90;1.40;;;0.32;100.00;97210.97;646735;212;31954;-76
2022/01/12 10:52:09;;;;;;;3.70;2.53;;;-0.90;1.40;;;1.05;100.00;97216.25;648123;212;31563;-75
2022/01/12 10:54:57;;;;;;;4.62;2.85;;;-0.40;1.40;;;1.85;100.00;97219.70;648859;212;31612;-77
2022/01/12 10:57:39;;;;;;;4.05;3.75;;;-0.10;1.40;;;1.52;100.00;97215.56;647124;216;32209;-77
2022/01/12 11:00:24;;;;;;;5.03;4.43;;;0.00;1.40;;;1.90;100.00;97212.70;646877;216;31591;-77
2022/01/12 11:03:06;;;;;;;3.70;3.40;;;0.00;1.40;;;2.28;100.00;97215.19;647496;212;31584;-78
2022/01/12 11:05:50;;;;;;;4.70;3.62;;;0.20;1.40;;;2.41;100.00;97223.20;642020;212;31712;-77
2022/01/12 11:08:31;;;;;;;2.85;2.65;;;0.10;1.40;;;2.07;100.00;97220.67;646870;216;31589;-77
2022/01/12 11:11:13;;;;;;;3.78;3.42;;;0.00;1.40;;;1.56;100.00;97226.63;646877;212;42598;-78
2022/01/12 11:13:55;;;;;;;4.07;3.60;;;-0.10;1.40;;;1.40;100.00;97219.61;647696;212;31589;-77
2022/01/12 11:16:36;;;;;;;4.43;3.30;;;-0.20;1.40;;;1.51;100.00;97221.11;631948;222;31745;-78
2022/01/12 11:19:21;;;;;;;4.10;3.58;;;-0.10;1.40;;;1.77;100.00;97219.30;647992;212;31556;-77
2022/01/12 11:22:04;;;;;;;4.62;3.58;;;-0.10;1.40;;;2.03;100.00;97212.09;647757;216;31596;-78
2022/01/12 11:24:45;;;;;;;3.62;2.97;;;0.00;1.40;;;1.79;100.00;97218.36;646419;216;31577;-78
2022/01/12 11:27:28;;;;;;;4.20;2.72;;;0.10;1.40;;;1.89;100.00;97214.88;647797;216;42188;-77
2022/01/12 11:30:17;;;;;;;3.85;3.55;;;0.00;1.40;;;2.36;100.00;97209.41;647996;216;31585;-77
2022/01/12 11:33:01;;;;;;;5.60;3.67;;;0.20;1.40;;;1.60;100.00;97209.59;646976;216;32135;-77
2022/01/12 11:35:56;;;;;;;4.95;4.28;;;-0.10;1.40;;;1.38;100.00;97205.12;643626;217;31520;-77
2022/01/12 11:38:40;;;;;;;4.97;3.47;;;-0.20;1.40;;;1.70;100.00;97206.54;646461;212;31622;-78
2022/01/12 11:41:26;;;;;;;4.45;3.70;;;-0.10;1.40;;;2.11;100.00;97198.78;646949;212;31609;-77
2022/01/12 11:44:15;;;;;;;5.10;3.22;;;0.00;1.40;;;2.31;100.00;97205.84;635310;220;31747;-77
2022/01/12 11:46:56;;;;;;;5.03;4.62;;;0.20;1.40;;;2.13;100.00;97197.33;647605;216;31831;-78
2022/01/12 11:49:41;;;;;;;3.28;2.97;;;0.20;1.40;;;1.85;100.00;97191.98;647267;216;31605;-78
2022/01/12 11:52:23;;;;;;;4.62;3.87;;;0.10;1.40;;;2.21;100.00;97187.38;648072;216;42784;-78
2022/01/12 11:55:10;;;;;;;4.85;4.15;;;0.50;1.40;;;2.82;100.00;97178.08;619881;222;31972;-78
2022/01/12 11:57:54;;;;;;;3.75;3.45;;;0.80;1.40;;;2.99;100.00;97177.62;619493;226;31901;-78
2022/01/12 12:00:39;;;;;;;4.70;3.77;;;1.00;1.40;;;3.53;100.00;97189.35;646731;216;36714;-78
2022/01/12 12:03:20;;;;;;;3.10;2.90;;;1.10;1.40;;;3.47;100.00;97205.27;620474;226;32090;-78
2022/01/12 12:06:02;;;;;;;4.30;3.80;;;0.80;1.40;;;3.10;100.00;97212.05;647221;216;31664;-78
2022/01/12 12:08:58;;;;;;;3.67;3.08;;;0.40;1.40;;;2.39;100.00;97213.13;646586;212;32260;-79
2022/01/12 12:11:39;;;;;;;4.15;3.22;;;0.10;1.40;;;2.55;100.00;97206.80;620336;226;32109;-78
2022/01/12 12:14:24;;;;;;;3.80;3.50;;;0.20;1.40;;;2.71;100.00;97201.25;647307;212;32067;-78
2022/01/12 12:17:05;;;;;;;3.45;3.15;;;0.50;1.40;;;3.09;100.00;97208.80;648971;212;43159;-78
2022/01/12 12:19:50;;;;;;;2.55;2.15;;;0.80;1.40;;;3.76;100.00;97215.79;647494;216;31693;-78
2022/01/12 12:22:32;;;;;;;2.90;2.70;;;1.70;1.40;;;3.79;100.00;97222.91;646736;216;31547;-78
2022/01/12 12:25:15;;;;;;;5.35;4.28;;;1.40;1.40;;;3.65;100.00;97223.52;646634;216;31582;-78
2022/01/12 12:27:58;;;;;;;6.10;4.10;;;0.80;1.40;;;3.40;100.00;97229.29;647818;216;31738;-78
2022/01/12 12:30:40;;;;;;;3.87;3.47;;;0.70;1.40;;;2.97;100.00;97231.73;620093;226;32602;-78
2022/01/12 12:35:52;;;;;;;5.30;4.37;;;0.50;1.40;;;1.97;100.00;97240.57;646946;212;31603;-78
2022/01/12 12:38:34;;;;;;;5.30;4.80;;;0.30;1.40;;;2.07;100.00;97237.56;647802;216;32242;-77
2022/01/12 12:41:16;;;;;;;5.40;4.90;;;0.20;1.40;;;2.02;100.00;97233.53;647660;216;31621;-78
2022/01/12 12:43:58;;;;;;;7.10;5.10;;;0.20;1.40;;;2.24;100.00;97237.61;647569;216;31632;-78
2022/01/12 12:46:39;;;;;;;6.23;4.67;;;0.20;1.40;;;1.77;100.00;97245.12;621489;226;34475;-78
2022/01/12 12:49:26;;;;;;;6.00;4.97;;;0.00;1.40;;;0.71;100.00;97237.42;620137;226;31887;-76
2022/01/12 12:52:26;;;;;;;6.10;4.80;;;-0.40;1.40;;;1.44;100.00;97243.17;648169;212;32146;-77
2022/01/12 12:55:13;;;;;;;5.75;5.07;;;0.00;1.40;;;1.88;100.00;97243.56;646687;212;32099;-77
2022/01/12 12:57:58;;;;;;;8.65;5.15;;;0.00;1.40;;;1.77;100.00;97239.60;649813;212;31605;-78
2022/01/12 13:00:40;;;;;;;6.00;5.30;;;0.00;1.40;;;0.83;100.00;97228.30;647820;212;31782;-78
2022/01/12 13:03:23;;;;;;;4.85;4.30;;;-0.60;1.40;;;0.02;100.00;97229.06;647397;216;31526;-78
2022/01/12 13:06:03;;;;;;;8.70;4.75;;;-0.90;1.40;;;0.52;100.00;97218.82;615120;222;32054;-78
2022/01/12 13:08:57;;;;;;;4.65;4.00;;;-0.50;1.40;;;1.23;100.00;97221.69;618952;226;31939;-75
2022/01/12 13:11:46;;;;;;;4.70;4.28;;;-0.20;1.40;;;1.55;100.00;97223.91;647623;212;31539;-78
2022/01/12 13:14:29;;;;;;;7.90;5.33;;;-0.30;1.40;;;1.56;100.00;97222.69;649563;215;42758;-77
2022/01/12 13:17:11;;;;;;;4.78;4.28;;;-0.30;1.40;;;1.47;100.00;97224.39;647662;212;31609;-78
2022/01/12 13:22:50;;;;;;;5.90;4.90;;;-0.50;1.40;;;1.33;100.00;97215.05;647545;212;42170;-77